sensor_id;sensor_type;location;lat;lon;timestamp;temperature;humidity
4904;DHT22;2467;48.142;11.616;2022-09-30T00:00:11;11.10;99.90
4904;DHT22;2467;48.142;11.616;2022-09-30T00:00:43;11.10;99.90
4904;DHT22;2467;48.142;11.616;2022-09-30T00:01:16;11.10;99.90
4904;DHT22;2467;48.142;11.616;2022-09-30T00:01:49;11.10;99.90
4904;DHT22;2467;48.142;11.616;2022-09-30T00:02:21;11.10;99.90
4904;DHT22;2467;48.142;11.616;2022-09-30T00:02:54;11.10;99.90
4904;DHT22;2467;48.142;11.616;2022-09-30T00:03:26;11.10;99.90
4904;DHT22;2467;48.142;11.616;2022-09-30T00:04:00;11.10;99.90
4904;DHT22;2467;48.142;11.616;2022-09-30T00:04:32;11.10;99.90
4904;DHT22;2467;48.142;11.616;2022-09-30T00:05:05;11.10;99.90
4904;DHT22;2467;48.142;11.616;2022-09-30T00:05:37;11.10;99.90
4904;DHT22;2467;48.142;11.616;2022-09-30T00:06:09;11.10;99.90
4904;DHT22;2467;48.142;11.616;2022-09-30T00:06:42;11.10;99.90
4904;DHT22;2467;48.142;11.616;2022-09-30T00:07:14;11.10;99.90
4904;DHT22;2467;48.142;11.616;2022-09-30T00:07:46;11.10;99.90
4904;DHT22;2467;48.142;11.616;2022-09-30T00:08:18;11.10;99.90
4904;DHT22;2467;48.142;11.616;2022-09-30T00:08:51;11.10;99.90
4904;DHT22;2467;48.142;11.616;2022-09-30T00:09:23;11.10;99.90
4904;DHT22;2467;48.142;11.616;2022-09-30T00:09:57;11.10;99.90
4904;DHT22;2467;48.142;11.616;2022-09-30T00:10:28;11.10;99.90
4904;DHT22;2467;48.142;11.616;2022-09-30T00:11:01;11.10;99.90
4904;DHT22;2467;48.142;11.616;2022-09-30T00:11:35;11.10;99.90
4904;DHT22;2467;48.142;11.616;2022-09-30T00:12:09;11.10;99.90
4904;DHT22;2467;48.142;11.616;2022-09-30T00:12:41;11.10;99.90
4904;DHT22;2467;48.142;11.616;2022-09-30T00:13:13;11.10;99.90
4904;DHT22;2467;48.142;11.616;2022-09-30T00:13:48;11.10;99.90
4904;DHT22;2467;48.142;11.616;2022-09-30T00:14:22;11.10;99.90
4904;DHT22;2467;48.142;11.616;2022-09-30T00:14:55;11.10;99.90
4904;DHT22;2467;48.142;11.616;2022-09-30T00:15:28;11.20;99.90
4904;DHT22;2467;48.142;11.616;2022-09-30T00:16:00;11.10;99.90
4904;DHT22;2467;48.142;11.616;2022-09-30T00:16:35;11.10;99.90
4904;DHT22;2467;48.142;11.616;2022-09-30T00:17:07;11.10;99.90
4904;DHT22;2467;48.142;11.616;2022-09-30T00:17:40;11.10;99.90
4904;DHT22;2467;48.142;11.616;2022-09-30T00:18:11;11.10;99.90
4904;DHT22;2467;48.142;11.616;2022-09-30T00:18:44;11.10;99.90
4904;DHT22;2467;48.142;11.616;2022-09-30T00:19:17;11.10;99.90
4904;DHT22;2467;48.142;11.616;2022-09-30T00:19:49;11.10;99.90
4904;DHT22;2467;48.142;11.616;2022-09-30T00:20:21;11.10;99.90
4904;DHT22;2467;48.142;11.616;2022-09-30T00:20:53;11.10;99.90
4904;DHT22;2467;48.142;11.616;2022-09-30T00:21:26;11.10;99.90
4904;DHT22;2467;48.142;11.616;2022-09-30T00:21:59;11.10;99.90
4904;DHT22;2467;48.142;11.616;2022-09-30T00:22:31;11.10;99.90
4904;DHT22;2467;48.142;11.616;2022-09-30T00:23:03;11.10;99.90
4904;DHT22;2467;48.142;11.616;2022-09-30T00:23:36;11.10;99.90
4904;DHT22;2467;48.142;11.616;2022-09-30T00:24:09;11.10;99.90
4904;DHT22;2467;48.142;11.616;2022-09-30T00:24:41;11.10;99.90
4904;DHT22;2467;48.142;11.616;2022-09-30T00:25:13;11.10;99.90
4904;DHT22;2467;48.142;11.616;2022-09-30T00:25:46;11.10;99.90
4904;DHT22;2467;48.142;11.616;2022-09-30T00:26:21;11.10;99.90
4904;DHT22;2467;48.142;11.616;2022-09-30T00:26:53;11.10;99.90
4904;DHT22;2467;48.142;11.616;2022-09-30T00:27:25;11.10;99.90
4904;DHT22;2467;48.142;11.616;2022-09-30T00:27:57;11.10;99.90
4904;DHT22;2467;48.142;11.616;2022-09-30T00:28:29;11.10;99.90
4904;DHT22;2467;48.142;11.616;2022-09-30T00:29:03;11.10;99.90
4904;DHT22;2467;48.142;11.616;2022-09-30T00:29:35;11.10;99.90
4904;DHT22;2467;48.142;11.616;2022-09-30T00:30:08;11.10;99.90
4904;DHT22;2467;48.142;11.616;2022-09-30T00:30:42;11.10;99.90
4904;DHT22;2467;48.142;11.616;2022-09-30T00:31:15;11.10;99.90
4904;DHT22;2467;48.142;11.616;2022-09-30T00:31:48;11.10;99.90
4904;DHT22;2467;48.142;11.616;2022-09-30T00:32:20;11.10;99.90
4904;DHT22;2467;48.142;11.616;2022-09-30T00:32:52;11.20;99.90
4904;DHT22;2467;48.142;11.616;2022-09-30T00:33:24;11.10;99.90
4904;DHT22;2467;48.142;11.616;2022-09-30T00:33:57;11.10;99.90
4904;DHT22;2467;48.142;11.616;2022-09-30T00:34:38;11.10;99.90
4904;DHT22;2467;48.142;11.616;2022-09-30T00:35:11;11.10;99.90
4904;DHT22;2467;48.142;11.616;2022-09-30T00:35:43;11.10;99.90
4904;DHT22;2467;48.142;11.616;2022-09-30T00:36:14;11.10;99.90
4904;DHT22;2467;48.142;11.616;2022-09-30T00:36:49;11.10;99.90
4904;DHT22;2467;48.142;11.616;2022-09-30T00:37:21;11.10;99.90
4904;DHT22;2467;48.142;11.616;2022-09-30T00:37:54;11.10;99.90
4904;DHT22;2467;48.142;11.616;2022-09-30T00:38:26;11.10;99.90
4904;DHT22;2467;48.142;11.616;2022-09-30T00:38:57;11.10;99.90
4904;DHT22;2467;48.142;11.616;2022-09-30T00:39:29;11.10;99.90
4904;DHT22;2467;48.142;11.616;2022-09-30T00:40:02;11.10;99.90
4904;DHT22;2467;48.142;11.616;2022-09-30T00:40:36;11.10;99.90
4904;DHT22;2467;48.142;11.616;2022-09-30T00:41:08;11.10;99.90
4904;DHT22;2467;48.142;11.616;2022-09-30T00:41:40;11.10;99.90
4904;DHT22;2467;48.142;11.616;2022-09-30T00:42:14;11.10;99.90
4904;DHT22;2467;48.142;11.616;2022-09-30T00:42:46;11.10;99.90
4904;DHT22;2467;48.142;11.616;2022-09-30T00:43:20;11.10;99.90
4904;DHT22;2467;48.142;11.616;2022-09-30T00:44:48;11.10;99.90
4904;DHT22;2467;48.142;11.616;2022-09-30T00:45:21;11.10;99.90
4904;DHT22;2467;48.142;11.616;2022-09-30T00:45:58;11.10;99.90
4904;DHT22;2467;48.142;11.616;2022-09-30T00:46:33;11.00;99.90
4904;DHT22;2467;48.142;11.616;2022-09-30T00:47:26;11.10;99.90
4904;DHT22;2467;48.142;11.616;2022-09-30T00:48:05;11.10;99.90
4904;DHT22;2467;48.142;11.616;2022-09-30T00:48:38;11.00;99.90
4904;DHT22;2467;48.142;11.616;2022-09-30T00:49:15;11.00;99.90
4904;DHT22;2467;48.142;11.616;2022-09-30T00:49:49;11.00;99.90
4904;DHT22;2467;48.142;11.616;2022-09-30T00:50:27;11.00;99.90
4904;DHT22;2467;48.142;11.616;2022-09-30T00:51:01;11.00;99.90
4904;DHT22;2467;48.142;11.616;2022-09-30T00:51:38;11.00;99.90
4904;DHT22;2467;48.142;11.616;2022-09-30T00:52:12;11.00;99.90
4904;DHT22;2467;48.142;11.616;2022-09-30T00:52:47;11.00;99.90
4904;DHT22;2467;48.142;11.616;2022-09-30T00:53:24;11.00;99.90
4904;DHT22;2467;48.142;11.616;2022-09-30T00:54:02;11.00;99.90
4904;DHT22;2467;48.142;11.616;2022-09-30T00:54:35;11.00;99.90
4904;DHT22;2467;48.142;11.616;2022-09-30T00:55:12;11.00;99.90
4904;DHT22;2467;48.142;11.616;2022-09-30T00:55:51;11.00;99.90
4904;DHT22;2467;48.142;11.616;2022-09-30T00:56:28;11.00;99.90
4904;DHT22;2467;48.142;11.616;2022-09-30T00:57:06;11.00;99.90
4904;DHT22;2467;48.142;11.616;2022-09-30T00:57:38;11.00;99.90
4904;DHT22;2467;48.142;11.616;2022-09-30T00:58:15;11.00;99.90
4904;DHT22;2467;48.142;11.616;2022-09-30T00:58:51;11.10;99.90
4904;DHT22;2467;48.142;11.616;2022-09-30T00:59:26;11.00;99.90
4904;DHT22;2467;48.142;11.616;2022-09-30T01:00:00;11.10;99.90
4904;DHT22;2467;48.142;11.616;2022-09-30T01:00:33;11.10;99.90
4904;DHT22;2467;48.142;11.616;2022-09-30T01:01:06;11.10;99.90
4904;DHT22;2467;48.142;11.616;2022-09-30T01:01:40;11.10;99.90
4904;DHT22;2467;48.142;11.616;2022-09-30T01:02:13;11.10;99.90
4904;DHT22;2467;48.142;11.616;2022-09-30T01:02:45;11.10;99.90
4904;DHT22;2467;48.142;11.616;2022-09-30T01:03:18;11.10;99.90
4904;DHT22;2467;48.142;11.616;2022-09-30T01:03:55;11.10;99.90
4904;DHT22;2467;48.142;11.616;2022-09-30T01:04:29;11.10;99.90
4904;DHT22;2467;48.142;11.616;2022-09-30T01:05:02;11.10;99.90
4904;DHT22;2467;48.142;11.616;2022-09-30T01:05:35;11.10;99.90
4904;DHT22;2467;48.142;11.616;2022-09-30T01:06:07;11.10;99.90
4904;DHT22;2467;48.142;11.616;2022-09-30T01:06:39;11.10;99.90
4904;DHT22;2467;48.142;11.616;2022-09-30T01:07:13;11.10;99.90
4904;DHT22;2467;48.142;11.616;2022-09-30T01:07:46;11.10;99.90
4904;DHT22;2467;48.142;11.616;2022-09-30T01:08:20;11.10;99.90
4904;DHT22;2467;48.142;11.616;2022-09-30T01:08:53;11.10;99.90
4904;DHT22;2467;48.142;11.616;2022-09-30T01:09:25;11.10;99.90
4904;DHT22;2467;48.142;11.616;2022-09-30T01:09:58;11.10;99.90
4904;DHT22;2467;48.142;11.616;2022-09-30T01:10:30;11.10;99.90
4904;DHT22;2467;48.142;11.616;2022-09-30T01:11:03;11.10;99.90
4904;DHT22;2467;48.142;11.616;2022-09-30T01:11:39;11.10;99.90
4904;DHT22;2467;48.142;11.616;2022-09-30T01:12:15;11.10;99.90
4904;DHT22;2467;48.142;11.616;2022-09-30T01:12:48;11.20;99.90
4904;DHT22;2467;48.142;11.616;2022-09-30T01:13:22;11.10;99.90
4904;DHT22;2467;48.142;11.616;2022-09-30T01:14:00;11.00;99.90
4904;DHT22;2467;48.142;11.616;2022-09-30T01:14:33;11.00;99.90
4904;DHT22;2467;48.142;11.616;2022-09-30T01:15:07;11.00;99.90
4904;DHT22;2467;48.142;11.616;2022-09-30T01:15:52;11.00;99.90
4904;DHT22;2467;48.142;11.616;2022-09-30T01:16:38;11.00;99.90
4904;DHT22;2467;48.142;11.616;2022-09-30T01:17:18;11.00;99.90
4904;DHT22;2467;48.142;11.616;2022-09-30T01:17:57;11.00;99.90
4904;DHT22;2467;48.142;11.616;2022-09-30T01:18:37;11.00;99.90
4904;DHT22;2467;48.142;11.616;2022-09-30T01:19:39;11.00;99.90
4904;DHT22;2467;48.142;11.616;2022-09-30T01:20:42;11.00;99.90
4904;DHT22;2467;48.142;11.616;2022-09-30T01:21:56;11.00;99.90
4904;DHT22;2467;48.142;11.616;2022-09-30T01:22:37;10.90;99.90
4904;DHT22;2467;48.142;11.616;2022-09-30T01:24:37;10.90;99.90
4904;DHT22;2467;48.142;11.616;2022-09-30T01:25:40;10.90;99.90
4904;DHT22;2467;48.142;11.616;2022-09-30T01:27:52;10.90;99.90
4904;DHT22;2467;48.142;11.616;2022-09-30T01:28:53;10.80;99.90
4904;DHT22;2467;48.142;11.616;2022-09-30T01:30:45;10.80;99.90
4904;DHT22;2467;48.142;11.616;2022-09-30T01:31:34;10.80;99.90
4904;DHT22;2467;48.142;11.616;2022-09-30T01:32:22;10.80;99.90
4904;DHT22;2467;48.142;11.616;2022-09-30T01:33:11;10.80;99.90
4904;DHT22;2467;48.142;11.616;2022-09-30T01:33:56;10.80;99.90
4904;DHT22;2467;48.142;11.616;2022-09-30T01:34:38;10.80;99.90
4904;DHT22;2467;48.142;11.616;2022-09-30T01:35:21;10.80;99.90
4904;DHT22;2467;48.142;11.616;2022-09-30T01:36:06;10.80;99.90
4904;DHT22;2467;48.142;11.616;2022-09-30T01:36:53;10.90;99.90
4904;DHT22;2467;48.142;11.616;2022-09-30T01:37:37;10.90;99.90
4904;DHT22;2467;48.142;11.616;2022-09-30T01:38:15;10.90;99.90
4904;DHT22;2467;48.142;11.616;2022-09-30T01:38:59;10.90;99.90
4904;DHT22;2467;48.142;11.616;2022-09-30T01:39:41;10.90;99.90
4904;DHT22;2467;48.142;11.616;2022-09-30T01:40:21;10.90;99.90
4904;DHT22;2467;48.142;11.616;2022-09-30T01:41:02;10.90;99.90
4904;DHT22;2467;48.142;11.616;2022-09-30T01:41:41;10.90;99.90
4904;DHT22;2467;48.142;11.616;2022-09-30T01:42:34;10.90;99.90
4904;DHT22;2467;48.142;11.616;2022-09-30T01:43:11;10.90;99.90
4904;DHT22;2467;48.142;11.616;2022-09-30T01:43:47;10.90;99.90
4904;DHT22;2467;48.142;11.616;2022-09-30T01:44:29;10.90;99.90
4904;DHT22;2467;48.142;11.616;2022-09-30T01:45:07;11.00;99.90
4904;DHT22;2467;48.142;11.616;2022-09-30T01:45:47;11.00;99.90
4904;DHT22;2467;48.142;11.616;2022-09-30T01:46:25;11.00;99.90
4904;DHT22;2467;48.142;11.616;2022-09-30T01:47:08;11.00;99.90
4904;DHT22;2467;48.142;11.616;2022-09-30T01:47:44;11.00;99.90
4904;DHT22;2467;48.142;11.616;2022-09-30T01:48:21;11.00;99.90
4904;DHT22;2467;48.142;11.616;2022-09-30T01:49:00;11.00;99.90
4904;DHT22;2467;48.142;11.616;2022-09-30T01:49:41;11.00;99.90
4904;DHT22;2467;48.142;11.616;2022-09-30T01:50:17;11.00;99.90
4904;DHT22;2467;48.142;11.616;2022-09-30T01:50:54;11.00;99.90
4904;DHT22;2467;48.142;11.616;2022-09-30T01:51:31;11.00;99.90
4904;DHT22;2467;48.142;11.616;2022-09-30T01:52:05;11.00;99.90
4904;DHT22;2467;48.142;11.616;2022-09-30T01:52:45;11.00;99.90
4904;DHT22;2467;48.142;11.616;2022-09-30T01:53:24;11.00;99.90
4904;DHT22;2467;48.142;11.616;2022-09-30T01:54:01;11.00;99.90
4904;DHT22;2467;48.142;11.616;2022-09-30T01:54:39;11.00;99.90
4904;DHT22;2467;48.142;11.616;2022-09-30T01:55:17;11.00;99.90
4904;DHT22;2467;48.142;11.616;2022-09-30T01:55:55;11.00;99.90
4904;DHT22;2467;48.142;11.616;2022-09-30T01:56:36;11.00;99.90
4904;DHT22;2467;48.142;11.616;2022-09-30T01:57:13;11.00;99.90
4904;DHT22;2467;48.142;11.616;2022-09-30T01:57:55;11.00;99.90
4904;DHT22;2467;48.142;11.616;2022-09-30T01:58:34;10.90;99.90
4904;DHT22;2467;48.142;11.616;2022-09-30T01:59:11;11.00;99.90
4904;DHT22;2467;48.142;11.616;2022-09-30T01:59:48;11.00;99.90
4904;DHT22;2467;48.142;11.616;2022-09-30T02:00:21;10.90;99.90
4904;DHT22;2467;48.142;11.616;2022-09-30T02:01:02;11.00;99.90
4904;DHT22;2467;48.142;11.616;2022-09-30T02:01:40;11.00;99.90
4904;DHT22;2467;48.142;11.616;2022-09-30T02:02:17;11.00;99.90
4904;DHT22;2467;48.142;11.616;2022-09-30T02:02:52;11.00;99.90
4904;DHT22;2467;48.142;11.616;2022-09-30T02:03:29;11.00;99.90
4904;DHT22;2467;48.142;11.616;2022-09-30T02:04:06;11.00;99.90
4904;DHT22;2467;48.142;11.616;2022-09-30T02:04:43;11.00;99.90
4904;DHT22;2467;48.142;11.616;2022-09-30T02:05:19;11.00;99.90
4904;DHT22;2467;48.142;11.616;2022-09-30T02:05:55;11.00;99.90
4904;DHT22;2467;48.142;11.616;2022-09-30T02:06:36;11.00;99.90
4904;DHT22;2467;48.142;11.616;2022-09-30T02:07:12;11.00;99.90
4904;DHT22;2467;48.142;11.616;2022-09-30T02:07:53;11.00;99.90
4904;DHT22;2467;48.142;11.616;2022-09-30T02:08:30;11.00;99.90
4904;DHT22;2467;48.142;11.616;2022-09-30T02:09:06;11.00;99.90
4904;DHT22;2467;48.142;11.616;2022-09-30T02:09:42;11.00;99.90
4904;DHT22;2467;48.142;11.616;2022-09-30T02:10:22;11.00;99.90
4904;DHT22;2467;48.142;11.616;2022-09-30T02:10:57;11.00;99.90
4904;DHT22;2467;48.142;11.616;2022-09-30T02:11:33;11.00;99.90
4904;DHT22;2467;48.142;11.616;2022-09-30T02:12:12;11.00;99.90
4904;DHT22;2467;48.142;11.616;2022-09-30T02:12:50;11.00;99.90
4904;DHT22;2467;48.142;11.616;2022-09-30T02:13:27;11.00;99.90
4904;DHT22;2467;48.142;11.616;2022-09-30T02:14:05;11.00;99.90
4904;DHT22;2467;48.142;11.616;2022-09-30T02:14:42;11.00;99.90
4904;DHT22;2467;48.142;11.616;2022-09-30T02:15:21;11.00;99.90
4904;DHT22;2467;48.142;11.616;2022-09-30T02:15:57;11.00;99.90
4904;DHT22;2467;48.142;11.616;2022-09-30T02:16:36;11.00;99.90
4904;DHT22;2467;48.142;11.616;2022-09-30T02:17:14;11.00;99.90
4904;DHT22;2467;48.142;11.616;2022-09-30T02:17:52;11.00;99.90
4904;DHT22;2467;48.142;11.616;2022-09-30T02:18:28;11.00;99.90
4904;DHT22;2467;48.142;11.616;2022-09-30T02:19:10;11.00;99.90
4904;DHT22;2467;48.142;11.616;2022-09-30T02:19:47;11.00;99.90
4904;DHT22;2467;48.142;11.616;2022-09-30T02:20:23;11.00;99.90
4904;DHT22;2467;48.142;11.616;2022-09-30T02:20:59;11.00;99.90
4904;DHT22;2467;48.142;11.616;2022-09-30T02:21:34;11.00;99.90
4904;DHT22;2467;48.142;11.616;2022-09-30T02:22:13;11.00;99.90
4904;DHT22;2467;48.142;11.616;2022-09-30T02:22:48;11.00;99.90
4904;DHT22;2467;48.142;11.616;2022-09-30T02:23:26;11.00;99.90
4904;DHT22;2467;48.142;11.616;2022-09-30T02:24:02;11.00;99.90
4904;DHT22;2467;48.142;11.616;2022-09-30T02:24:37;11.00;99.90
4904;DHT22;2467;48.142;11.616;2022-09-30T02:25:14;11.00;99.90
4904;DHT22;2467;48.142;11.616;2022-09-30T02:25:54;11.00;99.90
4904;DHT22;2467;48.142;11.616;2022-09-30T02:26:31;11.00;99.90
4904;DHT22;2467;48.142;11.616;2022-09-30T02:27:07;11.00;99.90
4904;DHT22;2467;48.142;11.616;2022-09-30T02:27:46;11.00;99.90
4904;DHT22;2467;48.142;11.616;2022-09-30T02:28:22;11.00;99.90
4904;DHT22;2467;48.142;11.616;2022-09-30T02:29:00;11.00;99.90
4904;DHT22;2467;48.142;11.616;2022-09-30T02:29:36;11.00;99.90
4904;DHT22;2467;48.142;11.616;2022-09-30T02:30:11;11.00;99.90
4904;DHT22;2467;48.142;11.616;2022-09-30T02:30:47;11.00;99.90
4904;DHT22;2467;48.142;11.616;2022-09-30T02:31:23;11.00;99.90
4904;DHT22;2467;48.142;11.616;2022-09-30T02:32:02;11.00;99.90
4904;DHT22;2467;48.142;11.616;2022-09-30T02:32:39;11.00;99.90
4904;DHT22;2467;48.142;11.616;2022-09-30T02:33:18;11.00;99.90
4904;DHT22;2467;48.142;11.616;2022-09-30T02:33:53;11.00;99.90
4904;DHT22;2467;48.142;11.616;2022-09-30T02:34:28;11.00;99.90
4904;DHT22;2467;48.142;11.616;2022-09-30T02:35:05;11.00;99.90
4904;DHT22;2467;48.142;11.616;2022-09-30T02:35:42;11.00;99.90
4904;DHT22;2467;48.142;11.616;2022-09-30T02:36:19;11.00;99.90
4904;DHT22;2467;48.142;11.616;2022-09-30T02:37:06;11.00;99.90
4904;DHT22;2467;48.142;11.616;2022-09-30T02:37:41;11.00;99.90
4904;DHT22;2467;48.142;11.616;2022-09-30T02:38:18;11.00;99.90
4904;DHT22;2467;48.142;11.616;2022-09-30T02:38:55;10.90;99.90
4904;DHT22;2467;48.142;11.616;2022-09-30T02:39:39;10.90;99.90
4904;DHT22;2467;48.142;11.616;2022-09-30T02:40:17;10.90;99.90
4904;DHT22;2467;48.142;11.616;2022-09-30T02:40:55;10.90;99.90
4904;DHT22;2467;48.142;11.616;2022-09-30T02:41:29;10.90;99.90
4904;DHT22;2467;48.142;11.616;2022-09-30T02:42:11;10.90;99.90
4904;DHT22;2467;48.142;11.616;2022-09-30T02:42:45;11.00;99.90
4904;DHT22;2467;48.142;11.616;2022-09-30T02:43:19;10.90;99.90
4904;DHT22;2467;48.142;11.616;2022-09-30T02:43:53;10.90;99.90
4904;DHT22;2467;48.142;11.616;2022-09-30T02:44:25;10.90;99.90
4904;DHT22;2467;48.142;11.616;2022-09-30T02:45:01;10.90;99.90
4904;DHT22;2467;48.142;11.616;2022-09-30T02:45:39;10.90;99.90
4904;DHT22;2467;48.142;11.616;2022-09-30T02:46:21;10.90;99.90
4904;DHT22;2467;48.142;11.616;2022-09-30T02:47:05;10.90;99.90
4904;DHT22;2467;48.142;11.616;2022-09-30T02:47:47;10.90;99.90
4904;DHT22;2467;48.142;11.616;2022-09-30T02:48:27;10.90;99.90
4904;DHT22;2467;48.142;11.616;2022-09-30T02:49:05;10.90;99.90
4904;DHT22;2467;48.142;11.616;2022-09-30T02:49:44;10.90;99.90
4904;DHT22;2467;48.142;11.616;2022-09-30T02:50:21;10.80;99.90
4904;DHT22;2467;48.142;11.616;2022-09-30T02:51:03;10.80;99.90
4904;DHT22;2467;48.142;11.616;2022-09-30T02:51:39;10.80;99.90
4904;DHT22;2467;48.142;11.616;2022-09-30T02:52:22;10.80;99.90
4904;DHT22;2467;48.142;11.616;2022-09-30T02:53:10;10.90;99.90
4904;DHT22;2467;48.142;11.616;2022-09-30T02:53:50;10.90;99.90
4904;DHT22;2467;48.142;11.616;2022-09-30T02:54:31;10.90;99.90
4904;DHT22;2467;48.142;11.616;2022-09-30T02:55:14;10.90;99.90
4904;DHT22;2467;48.142;11.616;2022-09-30T02:56:02;10.80;99.90
4904;DHT22;2467;48.142;11.616;2022-09-30T02:56:43;10.80;99.90
4904;DHT22;2467;48.142;11.616;2022-09-30T02:57:25;10.80;99.90
4904;DHT22;2467;48.142;11.616;2022-09-30T02:58:07;10.80;99.90
4904;DHT22;2467;48.142;11.616;2022-09-30T02:58:42;10.80;99.90
4904;DHT22;2467;48.142;11.616;2022-09-30T02:59:17;10.80;99.90
4904;DHT22;2467;48.142;11.616;2022-09-30T02:59:50;10.80;99.90
4904;DHT22;2467;48.142;11.616;2022-09-30T03:00:23;10.80;99.90
4904;DHT22;2467;48.142;11.616;2022-09-30T03:00:56;10.80;99.90
4904;DHT22;2467;48.142;11.616;2022-09-30T03:01:28;10.80;99.90
4904;DHT22;2467;48.142;11.616;2022-09-30T03:02:02;10.80;99.90
4904;DHT22;2467;48.142;11.616;2022-09-30T03:02:35;10.70;99.90
4904;DHT22;2467;48.142;11.616;2022-09-30T03:03:11;10.80;99.90
4904;DHT22;2467;48.142;11.616;2022-09-30T03:03:49;10.80;99.90
4904;DHT22;2467;48.142;11.616;2022-09-30T03:04:26;10.70;99.90
4904;DHT22;2467;48.142;11.616;2022-09-30T03:04:57;10.70;99.90
4904;DHT22;2467;48.142;11.616;2022-09-30T03:05:29;10.70;99.90
4904;DHT22;2467;48.142;11.616;2022-09-30T03:06:03;10.60;99.90
4904;DHT22;2467;48.142;11.616;2022-09-30T03:06:35;10.70;99.90
4904;DHT22;2467;48.142;11.616;2022-09-30T03:07:08;10.70;99.90
4904;DHT22;2467;48.142;11.616;2022-09-30T03:07:41;10.70;99.90
4904;DHT22;2467;48.142;11.616;2022-09-30T03:08:13;10.70;99.90
4904;DHT22;2467;48.142;11.616;2022-09-30T03:08:46;10.70;99.90
4904;DHT22;2467;48.142;11.616;2022-09-30T03:09:23;10.70;99.90
4904;DHT22;2467;48.142;11.616;2022-09-30T03:09:56;10.70;99.90
4904;DHT22;2467;48.142;11.616;2022-09-30T03:10:29;10.70;99.90
4904;DHT22;2467;48.142;11.616;2022-09-30T03:11:02;10.70;99.90
4904;DHT22;2467;48.142;11.616;2022-09-30T03:11:35;10.70;99.90
4904;DHT22;2467;48.142;11.616;2022-09-30T03:12:15;10.70;99.90
4904;DHT22;2467;48.142;11.616;2022-09-30T03:13:05;10.70;99.90
4904;DHT22;2467;48.142;11.616;2022-09-30T03:15:03;10.70;99.90
4904;DHT22;2467;48.142;11.616;2022-09-30T03:15:47;10.60;99.90
4904;DHT22;2467;48.142;11.616;2022-09-30T03:16:39;10.60;99.90
4904;DHT22;2467;48.142;11.616;2022-09-30T03:17:33;10.60;99.90
4904;DHT22;2467;48.142;11.616;2022-09-30T03:18:21;10.50;99.90
4904;DHT22;2467;48.142;11.616;2022-09-30T03:19:06;10.50;99.90
4904;DHT22;2467;48.142;11.616;2022-09-30T03:20:01;10.60;99.90
4904;DHT22;2467;48.142;11.616;2022-09-30T03:20:45;10.50;99.90
4904;DHT22;2467;48.142;11.616;2022-09-30T03:21:33;10.50;99.90
4904;DHT22;2467;48.142;11.616;2022-09-30T03:22:28;10.50;99.90
4904;DHT22;2467;48.142;11.616;2022-09-30T03:23:22;10.50;99.90
4904;DHT22;2467;48.142;11.616;2022-09-30T03:25:13;10.50;99.90
4904;DHT22;2467;48.142;11.616;2022-09-30T03:25:52;10.50;99.90
4904;DHT22;2467;48.142;11.616;2022-09-30T03:26:35;10.50;99.90
4904;DHT22;2467;48.142;11.616;2022-09-30T03:27:15;10.50;99.90
4904;DHT22;2467;48.142;11.616;2022-09-30T03:28:03;10.50;99.90
4904;DHT22;2467;48.142;11.616;2022-09-30T03:28:42;10.50;99.90
4904;DHT22;2467;48.142;11.616;2022-09-30T03:29:23;10.50;99.90
4904;DHT22;2467;48.142;11.616;2022-09-30T03:30:04;10.50;99.90
4904;DHT22;2467;48.142;11.616;2022-09-30T03:30:40;10.50;99.90
4904;DHT22;2467;48.142;11.616;2022-09-30T03:31:23;10.50;99.90
4904;DHT22;2467;48.142;11.616;2022-09-30T03:32:07;10.50;99.90
4904;DHT22;2467;48.142;11.616;2022-09-30T03:32:56;10.50;99.90
4904;DHT22;2467;48.142;11.616;2022-09-30T03:33:38;10.50;99.90
4904;DHT22;2467;48.142;11.616;2022-09-30T03:34:19;10.50;99.90
4904;DHT22;2467;48.142;11.616;2022-09-30T03:35:03;10.50;99.90
4904;DHT22;2467;48.142;11.616;2022-09-30T03:35:45;10.50;99.90
4904;DHT22;2467;48.142;11.616;2022-09-30T03:36:25;10.50;99.90
4904;DHT22;2467;48.142;11.616;2022-09-30T03:37:04;10.50;99.90
4904;DHT22;2467;48.142;11.616;2022-09-30T03:37:46;10.60;99.90
4904;DHT22;2467;48.142;11.616;2022-09-30T03:38:32;10.60;99.90
4904;DHT22;2467;48.142;11.616;2022-09-30T03:39:15;10.60;99.90
4904;DHT22;2467;48.142;11.616;2022-09-30T03:39:53;10.60;99.90
4904;DHT22;2467;48.142;11.616;2022-09-30T03:40:35;10.60;99.90
4904;DHT22;2467;48.142;11.616;2022-09-30T03:41:11;10.60;99.90
4904;DHT22;2467;48.142;11.616;2022-09-30T03:41:49;10.60;99.90
4904;DHT22;2467;48.142;11.616;2022-09-30T03:42:26;10.60;99.90
4904;DHT22;2467;48.142;11.616;2022-09-30T03:43:03;10.60;99.90
4904;DHT22;2467;48.142;11.616;2022-09-30T03:43:41;10.60;99.90
4904;DHT22;2467;48.142;11.616;2022-09-30T03:44:17;10.60;99.90
4904;DHT22;2467;48.142;11.616;2022-09-30T03:44:57;10.60;99.90
4904;DHT22;2467;48.142;11.616;2022-09-30T03:45:35;10.60;99.90
4904;DHT22;2467;48.142;11.616;2022-09-30T03:46:14;10.70;99.90
4904;DHT22;2467;48.142;11.616;2022-09-30T03:46:52;10.60;99.90
4904;DHT22;2467;48.142;11.616;2022-09-30T03:47:27;10.60;99.90
4904;DHT22;2467;48.142;11.616;2022-09-30T03:48:06;10.60;99.90
4904;DHT22;2467;48.142;11.616;2022-09-30T03:48:40;10.70;99.90
4904;DHT22;2467;48.142;11.616;2022-09-30T03:49:16;10.70;99.90
4904;DHT22;2467;48.142;11.616;2022-09-30T03:49:54;10.70;99.90
4904;DHT22;2467;48.142;11.616;2022-09-30T03:50:27;10.70;99.90
4904;DHT22;2467;48.142;11.616;2022-09-30T03:51:02;10.70;99.90
4904;DHT22;2467;48.142;11.616;2022-09-30T03:51:36;10.70;99.90
4904;DHT22;2467;48.142;11.616;2022-09-30T03:52:11;10.70;99.90
4904;DHT22;2467;48.142;11.616;2022-09-30T03:52:44;10.70;99.90
4904;DHT22;2467;48.142;11.616;2022-09-30T03:53:16;10.70;99.90
4904;DHT22;2467;48.142;11.616;2022-09-30T03:53:48;10.70;99.90
4904;DHT22;2467;48.142;11.616;2022-09-30T03:54:21;10.70;99.90
4904;DHT22;2467;48.142;11.616;2022-09-30T03:54:56;10.70;99.90
4904;DHT22;2467;48.142;11.616;2022-09-30T03:55:29;10.80;99.90
4904;DHT22;2467;48.142;11.616;2022-09-30T03:56:04;10.80;99.90
4904;DHT22;2467;48.142;11.616;2022-09-30T03:56:36;10.80;99.90
4904;DHT22;2467;48.142;11.616;2022-09-30T03:57:12;10.80;99.90
4904;DHT22;2467;48.142;11.616;2022-09-30T03:57:45;10.80;99.90
4904;DHT22;2467;48.142;11.616;2022-09-30T03:58:18;10.80;99.90
4904;DHT22;2467;48.142;11.616;2022-09-30T03:58:52;10.80;99.90
4904;DHT22;2467;48.142;11.616;2022-09-30T03:59:26;10.80;99.90
4904;DHT22;2467;48.142;11.616;2022-09-30T03:59:59;10.80;99.90
4904;DHT22;2467;48.142;11.616;2022-09-30T04:00:32;10.80;99.90
4904;DHT22;2467;48.142;11.616;2022-09-30T04:01:04;10.80;99.90
4904;DHT22;2467;48.142;11.616;2022-09-30T04:01:36;10.80;99.90
4904;DHT22;2467;48.142;11.616;2022-09-30T04:02:09;10.80;99.90
4904;DHT22;2467;48.142;11.616;2022-09-30T04:02:44;10.80;99.90
4904;DHT22;2467;48.142;11.616;2022-09-30T04:03:19;10.80;99.90
4904;DHT22;2467;48.142;11.616;2022-09-30T04:03:52;10.80;99.90
4904;DHT22;2467;48.142;11.616;2022-09-30T04:04:24;10.90;99.90
4904;DHT22;2467;48.142;11.616;2022-09-30T04:04:57;10.90;99.90
4904;DHT22;2467;48.142;11.616;2022-09-30T04:05:29;10.80;99.90